sensor_id;sensor_type;location;lat;lon;timestamp;P1;durP1;ratioP1;P2;durP2;ratioP2
12484;SDS011;6307;46.804;11.580;2022-12-10T00:01:29;18.58;;;13.90;;
12484;SDS011;6307;46.804;11.580;2022-12-10T00:03:58;25.50;;;18.05;;
12484;SDS011;6307;46.804;11.580;2022-12-10T00:06:26;27.42;;;17.60;;
12484;SDS011;6307;46.804;11.580;2022-12-10T00:08:55;32.88;;;20.55;;
12484;SDS011;6307;46.804;11.580;2022-12-10T00:11:22;23.25;;;17.40;;
12484;SDS011;6307;46.804;11.580;2022-12-10T00:13:49;26.77;;;18.63;;
12484;SDS011;6307;46.804;11.580;2022-12-10T00:16:17;29.60;;;17.45;;
12484;SDS011;6307;46.804;11.580;2022-12-10T00:18:46;19.13;;;14.38;;
12484;SDS011;6307;46.804;11.580;2022-12-10T00:21:17;25.17;;;17.38;;
12484;SDS011;6307;46.804;11.580;2022-12-10T00:23:47;25.05;;;17.70;;
12484;SDS011;6307;46.804;11.580;2022-12-10T00:26:15;27.58;;;18.60;;
12484;SDS011;6307;46.804;11.580;2022-12-10T00:28:48;24.77;;;17.52;;
12484;SDS011;6307;46.804;11.580;2022-12-10T00:31:26;30.00;;;20.60;;
12484;SDS011;6307;46.804;11.580;2022-12-10T00:33:59;34.38;;;21.73;;
12484;SDS011;6307;46.804;11.580;2022-12-10T00:36:31;28.88;;;19.55;;
12484;SDS011;6307;46.804;11.580;2022-12-10T00:39:00;31.67;;;20.00;;
12484;SDS011;6307;46.804;11.580;2022-12-10T00:41:28;29.45;;;19.98;;
12484;SDS011;6307;46.804;11.580;2022-12-10T00:43:54;31.45;;;20.52;;
12484;SDS011;6307;46.804;11.580;2022-12-10T00:46:21;26.30;;;18.63;;
12484;SDS011;6307;46.804;11.580;2022-12-10T00:48:47;38.35;;;22.30;;
12484;SDS011;6307;46.804;11.580;2022-12-10T00:51:18;33.80;;;23.33;;
12484;SDS011;6307;46.804;11.580;2022-12-10T00:53:48;33.13;;;23.00;;
12484;SDS011;6307;46.804;11.580;2022-12-10T00:56:18;26.35;;;19.25;;
12484;SDS011;6307;46.804;11.580;2022-12-10T00:58:47;36.70;;;23.00;;
12484;SDS011;6307;46.804;11.580;2022-12-10T01:03:51;36.33;;;22.55;;
12484;SDS011;6307;46.804;11.580;2022-12-10T01:08:51;33.70;;;21.20;;
12484;SDS011;6307;46.804;11.580;2022-12-10T01:11:21;31.10;;;21.88;;
12484;SDS011;6307;46.804;11.580;2022-12-10T01:13:51;31.88;;;21.00;;
12484;SDS011;6307;46.804;11.580;2022-12-10T01:16:18;31.27;;;21.63;;
12484;SDS011;6307;46.804;11.580;2022-12-10T01:18:46;28.58;;;20.02;;
12484;SDS011;6307;46.804;11.580;2022-12-10T01:21:15;29.58;;;19.75;;
12484;SDS011;6307;46.804;11.580;2022-12-10T01:23:45;33.90;;;22.63;;
12484;SDS011;6307;46.804;11.580;2022-12-10T01:26:16;35.70;;;22.00;;
12484;SDS011;6307;46.804;11.580;2022-12-10T01:28:48;35.80;;;23.45;;
12484;SDS011;6307;46.804;11.580;2022-12-10T01:31:20;33.38;;;22.83;;
12484;SDS011;6307;46.804;11.580;2022-12-10T01:33:55;34.72;;;21.98;;
12484;SDS011;6307;46.804;11.580;2022-12-10T01:36:27;36.95;;;23.13;;
12484;SDS011;6307;46.804;11.580;2022-12-10T01:38:57;36.88;;;23.23;;
12484;SDS011;6307;46.804;11.580;2022-12-10T01:41:26;32.22;;;20.98;;
12484;SDS011;6307;46.804;11.580;2022-12-10T01:44:02;31.08;;;20.98;;
12484;SDS011;6307;46.804;11.580;2022-12-10T01:46:39;32.67;;;22.92;;
12484;SDS011;6307;46.804;11.580;2022-12-10T01:49:12;34.47;;;23.50;;
12484;SDS011;6307;46.804;11.580;2022-12-10T01:51:42;39.30;;;22.27;;
12484;SDS011;6307;46.804;11.580;2022-12-10T01:54:15;35.88;;;23.85;;
12484;SDS011;6307;46.804;11.580;2022-12-10T01:56:45;32.65;;;21.42;;
12484;SDS011;6307;46.804;11.580;2022-12-10T01:59:19;46.38;;;23.73;;
12484;SDS011;6307;46.804;11.580;2022-12-10T02:13:43;30.80;;;21.85;;
12484;SDS011;6307;46.804;11.580;2022-12-10T02:22:50;27.48;;;18.40;;
12484;SDS011;6307;46.804;11.580;2022-12-10T02:25:28;29.08;;;18.05;;
12484;SDS011;6307;46.804;11.580;2022-12-10T02:28:13;25.30;;;18.02;;
12484;SDS011;6307;46.804;11.580;2022-12-10T02:30:50;27.98;;;19.08;;
12484;SDS011;6307;46.804;11.580;2022-12-10T02:33:19;26.95;;;19.63;;
12484;SDS011;6307;46.804;11.580;2022-12-10T02:35:49;27.95;;;17.88;;
12484;SDS011;6307;46.804;11.580;2022-12-10T02:38:26;29.13;;;21.05;;
12484;SDS011;6307;46.804;11.580;2022-12-10T02:41:01;23.45;;;18.02;;
12484;SDS011;6307;46.804;11.580;2022-12-10T02:43:35;25.05;;;17.63;;
12484;SDS011;6307;46.804;11.580;2022-12-10T02:46:02;23.30;;;17.42;;
12484;SDS011;6307;46.804;11.580;2022-12-10T02:48:30;25.30;;;18.65;;
12484;SDS011;6307;46.804;11.580;2022-12-10T02:50:59;30.42;;;21.50;;
12484;SDS011;6307;46.804;11.580;2022-12-10T02:53:25;27.67;;;19.73;;
12484;SDS011;6307;46.804;11.580;2022-12-10T03:04:43;28.02;;;19.50;;
12484;SDS011;6307;46.804;11.580;2022-12-10T03:07:25;26.38;;;17.80;;
12484;SDS011;6307;46.804;11.580;2022-12-10T03:10:03;28.55;;;21.55;;
12484;SDS011;6307;46.804;11.580;2022-12-10T03:12:54;30.00;;;19.40;;
12484;SDS011;6307;46.804;11.580;2022-12-10T03:15:30;26.05;;;17.45;;
12484;SDS011;6307;46.804;11.580;2022-12-10T03:18:03;23.73;;;17.17;;
12484;SDS011;6307;46.804;11.580;2022-12-10T03:20:32;28.40;;;19.02;;
12484;SDS011;6307;46.804;11.580;2022-12-10T03:23:09;32.17;;;22.08;;
12484;SDS011;6307;46.804;11.580;2022-12-10T03:25:41;30.50;;;21.20;;
12484;SDS011;6307;46.804;11.580;2022-12-10T03:28:08;37.75;;;28.60;;
12484;SDS011;6307;46.804;11.580;2022-12-10T03:30:35;30.92;;;20.75;;
12484;SDS011;6307;46.804;11.580;2022-12-10T03:33:05;34.40;;;22.33;;
12484;SDS011;6307;46.804;11.580;2022-12-10T03:35:32;48.28;;;40.28;;
12484;SDS011;6307;46.804;11.580;2022-12-10T03:37:59;34.35;;;22.48;;
12484;SDS011;6307;46.804;11.580;2022-12-10T03:40:26;35.50;;;24.10;;
12484;SDS011;6307;46.804;11.580;2022-12-10T03:42:52;32.35;;;23.02;;
12484;SDS011;6307;46.804;11.580;2022-12-10T03:45:18;43.65;;;29.17;;
12484;SDS011;6307;46.804;11.580;2022-12-10T03:47:44;124.35;;;74.38;;
12484;SDS011;6307;46.804;11.580;2022-12-10T03:50:11;78.28;;;53.50;;
12484;SDS011;6307;46.804;11.580;2022-12-10T03:52:37;46.05;;;33.75;;
12484;SDS011;6307;46.804;11.580;2022-12-10T03:55:03;62.58;;;42.03;;
12484;SDS011;6307;46.804;11.580;2022-12-10T03:57:31;49.25;;;29.95;;
12484;SDS011;6307;46.804;11.580;2022-12-10T03:59:58;30.73;;;21.98;;
12484;SDS011;6307;46.804;11.580;2022-12-10T04:02:24;92.70;;;54.28;;
12484;SDS011;6307;46.804;11.580;2022-12-10T04:04:50;34.10;;;21.98;;
12484;SDS011;6307;46.804;11.580;2022-12-10T04:07:17;29.90;;;21.27;;
12484;SDS011;6307;46.804;11.580;2022-12-10T04:09:43;52.40;;;30.80;;
12484;SDS011;6307;46.804;11.580;2022-12-10T04:12:09;30.77;;;21.80;;
12484;SDS011;6307;46.804;11.580;2022-12-10T04:14:35;31.50;;;20.17;;
12484;SDS011;6307;46.804;11.580;2022-12-10T04:17:20;46.20;;;30.58;;
12484;SDS011;6307;46.804;11.580;2022-12-10T04:19:46;33.35;;;21.20;;
12484;SDS011;6307;46.804;11.580;2022-12-10T04:22:12;55.92;;;35.92;;
12484;SDS011;6307;46.804;11.580;2022-12-10T04:24:56;26.55;;;19.40;;
12484;SDS011;6307;46.804;11.580;2022-12-10T04:27:41;28.00;;;19.45;;
12484;SDS011;6307;46.804;11.580;2022-12-10T04:30:09;27.77;;;18.63;;
12484;SDS011;6307;46.804;11.580;2022-12-10T04:32:37;28.92;;;18.02;;
12484;SDS011;6307;46.804;11.580;2022-12-10T04:35:04;28.67;;;19.02;;
12484;SDS011;6307;46.804;11.580;2022-12-10T04:37:31;26.23;;;18.65;;
12484;SDS011;6307;46.804;11.580;2022-12-10T04:39:57;33.05;;;20.88;;
12484;SDS011;6307;46.804;11.580;2022-12-10T04:42:23;29.30;;;18.92;;
12484;SDS011;6307;46.804;11.580;2022-12-10T04:44:49;26.85;;;20.00;;
12484;SDS011;6307;46.804;11.580;2022-12-10T04:47:15;25.88;;;18.17;;
12484;SDS011;6307;46.804;11.580;2022-12-10T04:49:42;26.38;;;17.38;;
12484;SDS011;6307;46.804;11.580;2022-12-10T04:52:08;25.83;;;17.85;;
12484;SDS011;6307;46.804;11.580;2022-12-10T04:54:38;22.95;;;17.13;;
12484;SDS011;6307;46.804;11.580;2022-12-10T04:57:06;28.08;;;18.02;;
12484;SDS011;6307;46.804;11.580;2022-12-10T04:59:34;24.38;;;17.17;;
12484;SDS011;6307;46.804;11.580;2022-12-10T05:02:01;25.17;;;17.13;;
12484;SDS011;6307;46.804;11.580;2022-12-10T05:04:28;26.48;;;18.40;;
12484;SDS011;6307;46.804;11.580;2022-12-10T05:06:54;30.60;;;20.02;;
12484;SDS011;6307;46.804;11.580;2022-12-10T05:09:20;28.48;;;19.48;;
12484;SDS011;6307;46.804;11.580;2022-12-10T05:11:47;21.58;;;16.38;;
12484;SDS011;6307;46.804;11.580;2022-12-10T05:14:14;22.00;;;16.80;;
12484;SDS011;6307;46.804;11.580;2022-12-10T05:16:41;21.92;;;16.05;;
12484;SDS011;6307;46.804;11.580;2022-12-10T05:19:09;21.15;;;14.40;;
12484;SDS011;6307;46.804;11.580;2022-12-10T05:21:36;21.45;;;14.85;;
12484;SDS011;6307;46.804;11.580;2022-12-10T05:24:21;22.92;;;16.65;;
12484;SDS011;6307;46.804;11.580;2022-12-10T05:26:48;22.42;;;15.95;;
12484;SDS011;6307;46.804;11.580;2022-12-10T05:29:16;19.83;;;15.00;;
12484;SDS011;6307;46.804;11.580;2022-12-10T05:31:42;18.90;;;14.43;;
12484;SDS011;6307;46.804;11.580;2022-12-10T05:34:09;20.65;;;15.45;;
12484;SDS011;6307;46.804;11.580;2022-12-10T05:36:36;22.90;;;17.08;;
12484;SDS011;6307;46.804;11.580;2022-12-10T05:39:02;20.33;;;14.50;;
12484;SDS011;6307;46.804;11.580;2022-12-10T05:41:30;24.50;;;16.00;;
12484;SDS011;6307;46.804;11.580;2022-12-10T05:44:02;24.13;;;19.08;;
12484;SDS011;6307;46.804;11.580;2022-12-10T05:49:29;26.45;;;19.45;;
12484;SDS011;6307;46.804;11.580;2022-12-10T05:51:56;29.80;;;20.88;;
12484;SDS011;6307;46.804;11.580;2022-12-10T05:54:22;30.23;;;20.52;;
12484;SDS011;6307;46.804;11.580;2022-12-10T05:56:48;34.15;;;20.45;;
12484;SDS011;6307;46.804;11.580;2022-12-10T05:59:14;36.28;;;20.58;;
12484;SDS011;6307;46.804;11.580;2022-12-10T06:01:40;26.38;;;18.58;;
12484;SDS011;6307;46.804;11.580;2022-12-10T06:04:07;25.83;;;18.23;;
12484;SDS011;6307;46.804;11.580;2022-12-10T06:06:34;64.82;;;53.00;;
12484;SDS011;6307;46.804;11.580;2022-12-10T06:09:04;28.92;;;20.67;;
12484;SDS011;6307;46.804;11.580;2022-12-10T06:11:35;30.00;;;20.38;;
12484;SDS011;6307;46.804;11.580;2022-12-10T06:14:01;94.95;;;83.65;;
12484;SDS011;6307;46.804;11.580;2022-12-10T06:16:27;27.15;;;20.52;;
12484;SDS011;6307;46.804;11.580;2022-12-10T06:18:54;29.20;;;19.17;;
12484;SDS011;6307;46.804;11.580;2022-12-10T06:21:21;29.13;;;18.50;;
12484;SDS011;6307;46.804;11.580;2022-12-10T06:23:48;78.53;;;70.20;;
12484;SDS011;6307;46.804;11.580;2022-12-10T06:26:18;32.55;;;24.13;;
12484;SDS011;6307;46.804;11.580;2022-12-10T06:28:50;31.63;;;20.00;;
12484;SDS011;6307;46.804;11.580;2022-12-10T06:31:17;29.23;;;22.20;;
12484;SDS011;6307;46.804;11.580;2022-12-10T06:33:44;33.67;;;25.55;;
12484;SDS011;6307;46.804;11.580;2022-12-10T06:36:11;27.65;;;20.85;;
12484;SDS011;6307;46.804;11.580;2022-12-10T06:38:40;30.85;;;22.92;;
12484;SDS011;6307;46.804;11.580;2022-12-10T06:41:08;25.13;;;16.92;;
12484;SDS011;6307;46.804;11.580;2022-12-10T06:43:39;23.60;;;17.10;;
12484;SDS011;6307;46.804;11.580;2022-12-10T06:46:09;21.80;;;16.65;;
12484;SDS011;6307;46.804;11.580;2022-12-10T06:48:42;20.55;;;14.80;;
12484;SDS011;6307;46.804;11.580;2022-12-10T06:51:08;58.40;;;22.83;;
12484;SDS011;6307;46.804;11.580;2022-12-10T06:53:36;27.08;;;20.92;;
12484;SDS011;6307;46.804;11.580;2022-12-10T06:56:04;42.80;;;36.45;;
12484;SDS011;6307;46.804;11.580;2022-12-10T06:58:35;28.33;;;18.77;;
12484;SDS011;6307;46.804;11.580;2022-12-10T07:01:20;30.73;;;23.05;;
12484;SDS011;6307;46.804;11.580;2022-12-10T07:03:54;29.92;;;24.00;;
12484;SDS011;6307;46.804;11.580;2022-12-10T07:06:22;20.30;;;16.17;;
12484;SDS011;6307;46.804;11.580;2022-12-10T07:08:50;19.00;;;14.27;;
12484;SDS011;6307;46.804;11.580;2022-12-10T07:11:18;22.15;;;15.13;;
12484;SDS011;6307;46.804;11.580;2022-12-10T07:13:46;24.33;;;17.42;;
12484;SDS011;6307;46.804;11.580;2022-12-10T07:16:13;162.02;;;106.82;;
12484;SDS011;6307;46.804;11.580;2022-12-10T07:18:42;90.20;;;61.03;;
12484;SDS011;6307;46.804;11.580;2022-12-10T07:21:16;198.35;;;130.35;;
12484;SDS011;6307;46.804;11.580;2022-12-10T07:24:02;22.83;;;16.08;;
12484;SDS011;6307;46.804;11.580;2022-12-10T07:26:41;37.97;;;25.05;;
12484;SDS011;6307;46.804;11.580;2022-12-10T07:29:12;39.15;;;26.58;;
12484;SDS011;6307;46.804;11.580;2022-12-10T07:31:44;36.22;;;25.38;;
12484;SDS011;6307;46.804;11.580;2022-12-10T07:34:11;20.95;;;16.23;;
12484;SDS011;6307;46.804;11.580;2022-12-10T07:36:37;19.13;;;13.63;;
12484;SDS011;6307;46.804;11.580;2022-12-10T07:39:04;19.52;;;14.98;;
12484;SDS011;6307;46.804;11.580;2022-12-10T07:41:33;18.30;;;13.45;;
12484;SDS011;6307;46.804;11.580;2022-12-10T07:44:01;19.27;;;13.65;;
12484;SDS011;6307;46.804;11.580;2022-12-10T07:46:31;17.08;;;13.88;;
12484;SDS011;6307;46.804;11.580;2022-12-10T07:49:02;19.58;;;13.52;;
12484;SDS011;6307;46.804;11.580;2022-12-10T07:51:28;15.57;;;12.63;;
12484;SDS011;6307;46.804;11.580;2022-12-10T07:53:55;15.85;;;12.18;;
12484;SDS011;6307;46.804;11.580;2022-12-10T07:56:22;15.15;;;10.90;;
12484;SDS011;6307;46.804;11.580;2022-12-10T07:58:50;18.13;;;11.85;;
12484;SDS011;6307;46.804;11.580;2022-12-10T08:01:19;17.92;;;12.15;;
12484;SDS011;6307;46.804;11.580;2022-12-10T08:03:49;14.50;;;10.93;;
12484;SDS011;6307;46.804;11.580;2022-12-10T08:06:18;13.73;;;10.35;;
12484;SDS011;6307;46.804;11.580;2022-12-10T08:08:46;14.32;;;10.90;;
12484;SDS011;6307;46.804;11.580;2022-12-10T08:11:14;11.93;;;9.52;;
12484;SDS011;6307;46.804;11.580;2022-12-10T08:13:42;12.35;;;8.93;;
12484;SDS011;6307;46.804;11.580;2022-12-10T08:16:13;12.98;;;9.65;;
12484;SDS011;6307;46.804;11.580;2022-12-10T08:18:45;13.75;;;8.90;;
12484;SDS011;6307;46.804;11.580;2022-12-10T08:21:16;11.45;;;9.27;;
12484;SDS011;6307;46.804;11.580;2022-12-10T08:23:45;11.00;;;9.23;;
12484;SDS011;6307;46.804;11.580;2022-12-10T08:26:13;16.58;;;8.75;;
12484;SDS011;6307;46.804;11.580;2022-12-10T08:28:53;11.82;;;8.27;;
12484;SDS011;6307;46.804;11.580;2022-12-10T08:31:21;10.77;;;7.97;;
12484;SDS011;6307;46.804;11.580;2022-12-10T08:33:49;9.82;;;7.53;;
12484;SDS011;6307;46.804;11.580;2022-12-10T08:36:16;9.75;;;7.60;;
12484;SDS011;6307;46.804;11.580;2022-12-10T08:38:44;11.55;;;8.20;;
12484;SDS011;6307;46.804;11.580;2022-12-10T08:41:15;7.93;;;6.47;;
12484;SDS011;6307;46.804;11.580;2022-12-10T08:43:46;13.75;;;7.03;;
12484;SDS011;6307;46.804;11.580;2022-12-10T08:46:15;9.60;;;7.03;;
12484;SDS011;6307;46.804;11.580;2022-12-10T08:48:42;11.43;;;7.63;;
12484;SDS011;6307;46.804;11.580;2022-12-10T08:51:10;12.15;;;7.20;;
12484;SDS011;6307;46.804;11.580;2022-12-10T08:53:40;9.57;;;7.22;;
12484;SDS011;6307;46.804;11.580;2022-12-10T08:56:06;11.15;;;8.02;;
12484;SDS011;6307;46.804;11.580;2022-12-10T08:58:33;9.35;;;6.85;;
12484;SDS011;6307;46.804;11.580;2022-12-10T09:01:04;10.77;;;7.15;;
12484;SDS011;6307;46.804;11.580;2022-12-10T09:03:36;10.20;;;6.90;;
12484;SDS011;6307;46.804;11.580;2022-12-10T09:06:03;12.25;;;7.10;;
12484;SDS011;6307;46.804;11.580;2022-12-10T09:08:35;9.23;;;6.30;;
12484;SDS011;6307;46.804;11.580;2022-12-10T09:11:09;9.38;;;6.68;;
12484;SDS011;6307;46.804;11.580;2022-12-10T09:13:54;9.88;;;6.88;;
12484;SDS011;6307;46.804;11.580;2022-12-10T09:16:21;9.55;;;6.93;;
12484;SDS011;6307;46.804;11.580;2022-12-10T09:19:01;10.18;;;7.40;;
12484;SDS011;6307;46.804;11.580;2022-12-10T09:21:29;9.82;;;7.68;;
12484;SDS011;6307;46.804;11.580;2022-12-10T09:23:55;9.45;;;7.07;;
12484;SDS011;6307;46.804;11.580;2022-12-10T09:26:22;11.52;;;7.93;;
12484;SDS011;6307;46.804;11.580;2022-12-10T09:28:49;10.65;;;7.53;;
12484;SDS011;6307;46.804;11.580;2022-12-10T09:31:17;10.80;;;7.72;;
12484;SDS011;6307;46.804;11.580;2022-12-10T09:33:45;8.90;;;7.35;;
12484;SDS011;6307;46.804;11.580;2022-12-10T09:36:13;9.60;;;7.15;;
12484;SDS011;6307;46.804;11.580;2022-12-10T09:38:41;9.93;;;6.82;;
12484;SDS011;6307;46.804;11.580;2022-12-10T09:44:21;11.57;;;7.25;;
12484;SDS011;6307;46.804;11.580;2022-12-10T09:47:03;10.00;;;6.93;;
12484;SDS011;6307;46.804;11.580;2022-12-10T09:52:19;9.35;;;6.22;;
12484;SDS011;6307;46.804;11.580;2022-12-10T10:00:06;8.70;;;6.32;;
12484;SDS011;6307;46.804;11.580;2022-12-10T10:02:58;8.93;;;6.40;;
12484;SDS011;6307;46.804;11.580;2022-12-10T10:05:31;9.23;;;6.60;;
12484;SDS011;6307;46.804;11.580;2022-12-10T10:08:03;8.13;;;6.38;;
12484;SDS011;6307;46.804;11.580;2022-12-10T10:10:39;10.10;;;6.60;;
12484;SDS011;6307;46.804;11.580;2022-12-10T10:15:33;8.30;;;6.35;;
12484;SDS011;6307;46.804;11.580;2022-12-10T10:18:54;8.13;;;6.40;;
12484;SDS011;6307;46.804;11.580;2022-12-10T10:21:11;6.78;;;5.72;;
12484;SDS011;6307;46.804;11.580;2022-12-10T10:23:53;9.55;;;7.00;;
12484;SDS011;6307;46.804;11.580;2022-12-10T10:26:21;8.43;;;6.05;;
12484;SDS011;6307;46.804;11.580;2022-12-10T10:28:52;12.20;;;7.20;;
12484;SDS011;6307;46.804;11.580;2022-12-10T10:31:27;10.25;;;7.35;;
12484;SDS011;6307;46.804;11.580;2022-12-10T10:34:01;8.65;;;5.55;;
12484;SDS011;6307;46.804;11.580;2022-12-10T10:36:35;10.35;;;6.90;;
12484;SDS011;6307;46.804;11.580;2022-12-10T10:39:10;9.13;;;6.10;;
12484;SDS011;6307;46.804;11.580;2022-12-10T10:41:43;8.68;;;6.15;;
12484;SDS011;6307;46.804;11.580;2022-12-10T10:44:18;8.20;;;5.40;;
12484;SDS011;6307;46.804;11.580;2022-12-10T10:46:48;7.35;;;5.35;;
12484;SDS011;6307;46.804;11.580;2022-12-10T10:51:58;8.20;;;5.95;;
12484;SDS011;6307;46.804;11.580;2022-12-10T10:54:40;6.75;;;5.95;;
12484;SDS011;6307;46.804;11.580;2022-12-10T10:57:14;8.77;;;6.07;;
12484;SDS011;6307;46.804;11.580;2022-12-10T10:59:53;7.93;;;6.15;;
12484;SDS011;6307;46.804;11.580;2022-12-10T11:02:47;11.13;;;5.90;;
12484;SDS011;6307;46.804;11.580;2022-12-10T11:05:22;9.63;;;5.53;;
12484;SDS011;6307;46.804;11.580;2022-12-10T11:07:58;7.95;;;5.25;;
12484;SDS011;6307;46.804;11.580;2022-12-10T11:10:52;6.70;;;5.65;;
12484;SDS011;6307;46.804;11.580;2022-12-10T11:13:29;7.68;;;6.38;;
12484;SDS011;6307;46.804;11.580;2022-12-10T11:18:41;7.13;;;5.75;;
12484;SDS011;6307;46.804;11.580;2022-12-10T11:21:22;7.43;;;5.40;;
12484;SDS011;6307;46.804;11.580;2022-12-10T11:23:53;8.20;;;5.70;;
12484;SDS011;6307;46.804;11.580;2022-12-10T11:42:45;7.68;;;4.85;;
12484;SDS011;6307;46.804;11.580;2022-12-10T11:45:43;6.50;;;5.15;;
12484;SDS011;6307;46.804;11.580;2022-12-10T11:51:37;6.60;;;4.97;;
12484;SDS011;6307;46.804;11.580;2022-12-10T11:57:06;4.53;;;4.07;;
12484;SDS011;6307;46.804;11.580;2022-12-10T11:59:52;7.15;;;4.82;;
12484;SDS011;6307;46.804;11.580;2022-12-10T12:08:24;3.60;;;3.00;;
12484;SDS011;6307;46.804;11.580;2022-12-10T12:17:27;3.13;;;2.83;;
12484;SDS011;6307;46.804;11.580;2022-12-10T12:20:02;3.75;;;3.35;;
12484;SDS011;6307;46.804;11.580;2022-12-10T12:22:44;4.20;;;3.45;;
12484;SDS011;6307;46.804;11.580;2022-12-10T12:25:28;4.80;;;4.00;;
12484;SDS011;6307;46.804;11.580;2022-12-10T12:28:10;3.78;;;3.22;;
12484;SDS011;6307;46.804;11.580;2022-12-10T12:30:58;4.68;;;3.63;;
12484;SDS011;6307;46.804;11.580;2022-12-10T12:33:48;4.32;;;3.60;;
12484;SDS011;6307;46.804;11.580;2022-12-10T12:36:49;3.65;;;3.08;;
12484;SDS011;6307;46.804;11.580;2022-12-10T12:41:57;5.53;;;4.20;;
12484;SDS011;6307;46.804;11.580;2022-12-10T12:45:08;4.72;;;3.30;;
12484;SDS011;6307;46.804;11.580;2022-12-10T12:53:29;4.25;;;3.38;;
12484;SDS011;6307;46.804;11.580;2022-12-10T13:01:41;7.18;;;4.10;;
12484;SDS011;6307;46.804;11.580;2022-12-10T13:04:18;6.13;;;3.35;;
12484;SDS011;6307;46.804;11.580;2022-12-10T13:07:08;5.63;;;3.67;;
12484;SDS011;6307;46.804;11.580;2022-12-10T13:15:48;4.75;;;3.65;;
12484;SDS011;6307;46.804;11.580;2022-12-10T13:20:51;4.53;;;3.80;;
12484;SDS011;6307;46.804;11.580;2022-12-10T13:23:50;4.55;;;3.63;;
12484;SDS011;6307;46.804;11.580;2022-12-10T13:26:40;6.27;;;3.73;;
12484;SDS011;6307;46.804;11.580;2022-12-10T13:29:27;4.17;;;3.30;;
12484;SDS011;6307;46.804;11.580;2022-12-10T13:32:12;4.15;;;3.00;;
12484;SDS011;6307;46.804;11.580;2022-12-10T13:34:42;3.83;;;3.07;;
12484;SDS011;6307;46.804;11.580;2022-12-10T13:42:34;3.40;;;2.70;;
12484;SDS011;6307;46.804;11.580;2022-12-10T13:50:59;5.35;;;3.80;;
12484;SDS011;6307;46.804;11.580;2022-12-10T13:57:04;4.88;;;3.88;;
12484;SDS011;6307;46.804;11.580;2022-12-10T13:59:50;7.77;;;3.57;;
12484;SDS011;6307;46.804;11.580;2022-12-10T14:08:28;5.60;;;4.40;;
12484;SDS011;6307;46.804;11.580;2022-12-10T14:10:59;5.85;;;4.18;;
12484;SDS011;6307;46.804;11.580;2022-12-10T14:13:41;3.90;;;3.50;;
12484;SDS011;6307;46.804;11.580;2022-12-10T14:16:14;16.33;;;11.50;;
12484;SDS011;6307;46.804;11.580;2022-12-10T14:18:49;4.20;;;3.20;;
12484;SDS011;6307;46.804;11.580;2022-12-10T14:21:34;4.35;;;3.95;;
12484;SDS011;6307;46.804;11.580;2022-12-10T14:24:04;4.90;;;3.22;;
12484;SDS011;6307;46.804;11.580;2022-12-10T14:26:31;4.80;;;3.97;;
12484;SDS011;6307;46.804;11.580;2022-12-10T14:29:08;5.35;;;3.33;;
12484;SDS011;6307;46.804;11.580;2022-12-10T14:31:46;4.38;;;3.60;;
12484;SDS011;6307;46.804;11.580;2022-12-10T14:34:16;4.57;;;2.38;;
12484;SDS011;6307;46.804;11.580;2022-12-10T14:36:50;2.20;;;2.00;;
12484;SDS011;6307;46.804;11.580;2022-12-10T14:39:26;3.03;;;2.60;;
12484;SDS011;6307;46.804;11.580;2022-12-10T14:41:57;2.93;;;2.37;;
12484;SDS011;6307;46.804;11.580;2022-12-10T14:44:28;2.50;;;2.20;;
12484;SDS011;6307;46.804;11.580;2022-12-10T14:47:06;2.50;;;2.30;;
12484;SDS011;6307;46.804;11.580;2022-12-10T14:49:49;3.20;;;2.38;;
12484;SDS011;6307;46.804;11.580;2022-12-10T14:52:23;2.90;;;2.00;;
12484;SDS011;6307;46.804;11.580;2022-12-10T14:54:58;3.17;;;2.37;;
12484;SDS011;6307;46.804;11.580;2022-12-10T14:57:25;2.55;;;1.90;;
12484;SDS011;6307;46.804;11.580;2022-12-10T15:02:38;2.80;;;2.17;;
12484;SDS011;6307;46.804;11.580;2022-12-10T15:07:38;2.55;;;1.80;;
12484;SDS011;6307;46.804;11.580;2022-12-10T15:10:06;2.13;;;1.48;;
12484;SDS011;6307;46.804;11.580;2022-12-10T15:12:43;2.67;;;1.85;;
12484;SDS011;6307;46.804;11.580;2022-12-10T15:15:21;9.20;;;3.17;;
12484;SDS011;6307;46.804;11.580;2022-12-10T15:18:00;8.90;;;4.78;;
12484;SDS011;6307;46.804;11.580;2022-12-10T15:20:38;1.67;;;1.58;;
12484;SDS011;6307;46.804;11.580;2022-12-10T15:30:50;8.38;;;2.67;;
12484;SDS011;6307;46.804;11.580;2022-12-10T15:33:30;4.82;;;2.40;;
12484;SDS011;6307;46.804;11.580;2022-12-10T15:36:02;2.75;;;1.42;;
12484;SDS011;6307;46.804;11.580;2022-12-10T15:38:29;8.65;;;4.18;;
12484;SDS011;6307;46.804;11.580;2022-12-10T15:41:00;9.40;;;7.00;;
12484;SDS011;6307;46.804;11.580;2022-12-10T15:44:03;1.92;;;1.35;;
12484;SDS011;6307;46.804;11.580;2022-12-10T15:46:47;2.10;;;1.88;;
12484;SDS011;6307;46.804;11.580;2022-12-10T15:49:40;19.13;;;12.32;;
12484;SDS011;6307;46.804;11.580;2022-12-10T15:52:09;29.40;;;18.85;;
12484;SDS011;6307;46.804;11.580;2022-12-10T15:54:42;4.63;;;3.97;;
12484;SDS011;6307;46.804;11.580;2022-12-10T15:57:14;2.78;;;2.45;;
12484;SDS011;6307;46.804;11.580;2022-12-10T15:59:48;2.95;;;2.20;;
12484;SDS011;6307;46.804;11.580;2022-12-10T16:05:31;2.65;;;1.98;;
12484;SDS011;6307;46.804;11.580;2022-12-10T16:10:49;4.63;;;2.95;;
12484;SDS011;6307;46.804;11.580;2022-12-10T16:13:30;4.68;;;3.33;;
12484;SDS011;6307;46.804;11.580;2022-12-10T16:16:05;1.50;;;1.40;;
12484;SDS011;6307;46.804;11.580;2022-12-10T16:18:35;1.30;;;1.20;;
12484;SDS011;6307;46.804;11.580;2022-12-10T16:21:03;2.25;;;1.27;;
12484;SDS011;6307;46.804;11.580;2022-12-10T16:23:31;1.10;;;1.00;;
12484;SDS011;6307;46.804;11.580;2022-12-10T16:25:58;1.67;;;1.25;;
12484;SDS011;6307;46.804;11.580;2022-12-10T16:28:25;1.30;;;1.20;;
12484;SDS011;6307;46.804;11.580;2022-12-10T16:30:53;1.17;;;1.08;;
12484;SDS011;6307;46.804;11.580;2022-12-10T16:33:23;0.95;;;0.85;;
12484;SDS011;6307;46.804;11.580;2022-12-10T16:35:51;1.10;;;1.00;;
12484;SDS011;6307;46.804;11.580;2022-12-10T16:38:20;0.90;;;0.90;;
12484;SDS011;6307;46.804;11.580;2022-12-10T16:40:47;0.90;;;0.90;;
12484;SDS011;6307;46.804;11.580;2022-12-10T16:43:14;1.20;;;1.10;;
12484;SDS011;6307;46.804;11.580;2022-12-10T16:45:46;0.90;;;0.90;;
12484;SDS011;6307;46.804;11.580;2022-12-10T16:48:16;0.80;;;0.80;;
12484;SDS011;6307;46.804;11.580;2022-12-10T16:50:43;0.73;;;0.73;;
12484;SDS011;6307;46.804;11.580;2022-12-10T16:55:54;0.80;;;0.80;;
12484;SDS011;6307;46.804;11.580;2022-12-10T16:58:22;0.80;;;0.80;;
12484;SDS011;6307;46.804;11.580;2022-12-10T17:00:51;0.70;;;0.70;;
12484;SDS011;6307;46.804;11.580;2022-12-10T17:03:20;0.85;;;0.85;;
12484;SDS011;6307;46.804;11.580;2022-12-10T17:05:50;1.00;;;0.90;;
12484;SDS011;6307;46.804;11.580;2022-12-10T17:08:18;0.80;;;0.80;;
12484;SDS011;6307;46.804;11.580;2022-12-10T17:10:46;0.80;;;0.80;;
12484;SDS011;6307;46.804;11.580;2022-12-10T17:13:32;0.80;;;0.80;;
12484;SDS011;6307;46.804;11.580;2022-12-10T17:16:00;0.70;;;0.70;;
12484;SDS011;6307;46.804;11.580;2022-12-10T17:18:27;0.80;;;0.80;;
12484;SDS011;6307;46.804;11.580;2022-12-10T17:20:54;0.80;;;0.80;;
12484;SDS011;6307;46.804;11.580;2022-12-10T17:23:20;1.20;;;1.10;;
12484;SDS011;6307;46.804;11.580;2022-12-10T17:25:46;0.90;;;0.90;;
12484;SDS011;6307;46.804;11.580;2022-12-10T17:28:19;0.90;;;0.90;;
12484;SDS011;6307;46.804;11.580;2022-12-10T17:30:47;0.93;;;0.90;;
12484;SDS011;6307;46.804;11.580;2022-12-10T17:33:15;1.00;;;1.00;;
12484;SDS011;6307;46.804;11.580;2022-12-10T17:35:46;0.70;;;0.70;;